Time;durP1;ratioP1;P1;durP2;ratioP2;P2;SDS_P1;SDS_P2;PMS_P1;PMS_P2;Temp;Humidity;BMP_temperature;BMP_pressure;BME280_temperature;BME280_humidity;BME280_pressure;Samples;Min_cycle;Max_cycle;Signal;HPM_P1;HPM_P2
2021/06/27 00:01:05;;;;;;;3.05;2.72;;;;;;;19.07;94.27;98803.38;1758913;81;21006;-65
2021/06/27 00:03:32;;;;;;;3.90;2.58;;;;;;;19.02;94.80;98803.41;1762629;81;21427;-65
2021/06/27 00:05:58;;;;;;;3.30;2.22;;;;;;;18.98;95.21;98797.59;1764090;81;21483;-65
2021/06/27 00:08:25;;;;;;;6.37;2.58;;;;;;;18.98;95.33;98796.77;1761740;81;21089;-65
2021/06/27 00:10:55;;;;;;;2.50;2.30;;;;;;;18.96;95.44;98788.98;1764057;80;20986;-65
2021/06/27 00:13:19;;;;;;;4.40;2.95;;;;;;;18.94;95.67;98785.65;1758352;81;20951;-66
2021/06/27 00:15:48;;;;;;;4.05;2.50;;;;;;;18.93;96.00;98782.66;1761710;81;21435;-65
2021/06/27 00:18:17;;;;;;;4.60;2.15;;;;;;;18.93;96.22;98780.02;1761398;81;21141;-65
2021/06/27 00:20:45;;;;;;;4.92;2.27;;;;;;;18.92;96.26;98780.51;1761389;81;20974;-65
2021/06/27 00:23:13;;;;;;;8.00;2.70;;;;;;;18.90;96.17;98782.44;1761458;81;21030;-65
2021/06/27 00:25:40;;;;;;;3.58;2.80;;;;;;;18.87;96.26;98781.38;1761421;81;20936;-65
2021/06/27 00:28:06;;;;;;;4.45;2.60;;;;;;;18.85;96.29;98774.58;1756931;81;21034;-65
2021/06/27 00:30:35;;;;;;;3.02;2.52;;;;;;;18.81;96.25;98781.90;1758546;81;21759;-66
2021/06/27 00:33:02;;;;;;;5.25;2.40;;;;;;;18.78;96.44;98781.36;1751340;80;20974;-66
2021/06/27 00:35:28;;;;;;;5.60;2.40;;;;;;;18.75;96.79;98775.86;1758233;81;21159;-66
2021/06/27 00:37:55;;;;;;;4.97;2.50;;;;;;;18.75;97.18;98769.28;1755202;80;21018;-66
2021/06/27 00:40:23;;;;;;;4.75;3.33;;;;;;;18.76;97.51;98764.36;1763981;79;20983;-66
2021/06/27 00:42:52;;;;;;;6.25;3.10;;;;;;;18.77;97.82;98763.40;1744396;80;20907;-66
2021/06/27 00:45:20;;;;;;;4.50;2.42;;;;;;;18.79;97.94;98767.19;1755603;81;21411;-66
2021/06/27 00:47:47;;;;;;;2.75;2.52;;;;;;;18.79;98.23;98771.14;1760978;80;21155;-66
2021/06/27 00:50:18;;;;;;;3.95;2.90;;;;;;;18.81;98.49;98774.48;1761045;81;21407;-66
2021/06/27 00:52:45;;;;;;;3.70;2.98;;;;;;;18.82;98.51;98775.67;1761739;81;21049;-66
2021/06/27 00:55:13;;;;;;;5.35;3.10;;;;;;;18.82;98.67;98771.72;1761480;81;21767;-66
2021/06/27 00:57:42;;;;;;;5.67;3.10;;;;;;;18.84;98.58;98769.78;1762519;81;20951;-64
2021/06/27 01:00:11;;;;;;;4.72;2.83;;;;;;;18.86;98.48;98774.44;1721950;81;20991;-65
2021/06/27 01:02:38;;;;;;;5.40;2.90;;;;;;;18.90;98.42;98773.70;1763552;81;21050;-65
2021/06/27 01:05:08;;;;;;;4.92;3.33;;;;;;;18.89;98.37;98774.19;1764039;81;21110;-65
2021/06/27 01:07:35;;;;;;;4.53;2.77;;;;;;;18.91;98.43;98778.84;1764077;81;21075;-64
2021/06/27 01:10:01;;;;;;;7.80;2.90;;;;;;;18.98;98.45;98786.22;1764120;81;20927;-64
2021/06/27 01:12:28;;;;;;;5.33;2.80;;;;;;;19.02;98.35;98786.28;1758990;80;21505;-65
2021/06/27 01:14:55;;;;;;;5.05;3.02;;;;;;;19.06;98.25;98796.91;1761458;81;21014;-65
2021/06/27 01:17:23;;;;;;;4.40;2.95;;;;;;;19.08;98.36;98798.94;1761431;81;21412;-65
2021/06/27 01:19:49;;;;;;;5.62;3.55;;;;;;;19.06;98.31;98791.64;1761497;81;21133;-66
2021/06/27 01:22:16;;;;;;;2.95;2.75;;;;;;;19.08;98.47;98798.94;1761190;81;21086;-66
2021/06/27 01:24:44;;;;;;;4.50;3.05;;;;;;;19.10;98.52;98794.38;1757361;81;21006;-66
2021/06/27 01:27:11;;;;;;;5.35;3.30;;;;;;;19.09;98.40;98796.17;1761707;81;20955;-66
2021/06/27 01:29:37;;;;;;;5.58;3.45;;;;;;;19.08;98.27;98802.41;1761427;81;21007;-65
2021/06/27 01:32:10;;;;;;;4.33;3.12;;;;;;;19.07;98.35;98800.73;1761433;81;21105;-65
2021/06/27 01:34:34;;;;;;;5.50;2.92;;;;;;;19.08;98.38;98788.39;1760697;81;21482;-65
2021/06/27 01:37:00;;;;;;;3.50;2.90;;;;;;;19.08;98.33;98788.39;1761397;81;21011;-65
2021/06/27 01:39:26;;;;;;;10.55;3.10;;;;;;;19.07;98.43;98789.36;1761668;81;21038;-65
2021/06/27 01:41:53;;;;;;;4.90;3.33;;;;;;;19.08;98.62;98780.48;1761247;80;20995;-65
2021/06/27 01:44:19;;;;;;;5.97;3.35;;;;;;;19.08;98.76;98778.69;1761669;81;21853;-65
2021/06/27 01:46:46;;;;;;;5.80;3.98;;;;;;;19.08;98.82;98783.95;1761191;81;20986;-65
2021/06/27 01:49:12;;;;;;;4.55;3.05;;;;;;;19.08;98.77;98776.05;1761580;80;20991;-65
2021/06/27 01:51:40;;;;;;;5.12;3.50;;;;;;;19.07;98.94;98769.59;1761481;81;20959;-66
2021/06/27 01:54:07;;;;;;;8.48;3.47;;;;;;;19.10;99.00;98770.65;1761399;81;21015;-66
2021/06/27 01:56:34;;;;;;;8.43;3.35;;;;;;;19.13;99.05;98776.48;1761415;81;21079;-66
2021/06/27 01:59:04;;;;;;;8.00;3.65;;;;;;;19.17;99.04;98779.22;1761335;81;20990;-66
2021/06/27 02:01:36;;;;;;;9.45;3.60;;;;;;;19.23;98.97;98789.20;1761604;81;21399;-66
2021/06/27 02:04:05;;;;;;;4.78;3.15;;;;;;;19.30;98.73;98786.03;1761264;81;21014;-66
2021/06/27 02:06:35;;;;;;;5.95;3.47;;;;;;;19.35;98.53;98789.94;1760765;81;20931;-66
2021/06/27 02:09:08;;;;;;;7.37;4.05;;;;;;;19.41;98.20;98792.50;1761290;81;20916;-66
2021/06/27 02:11:36;;;;;;;7.17;3.65;;;;;;;19.45;98.05;98797.37;1761430;81;20919;-66
2021/06/27 02:14:04;;;;;;;6.28;3.42;;;;;;;19.51;97.76;98802.63;1761345;81;20932;-66
2021/06/27 02:16:32;;;;;;;6.70;3.15;;;;;;;19.56;97.51;98804.38;1761290;81;21432;-66
2021/06/27 02:18:58;;;;;;;5.17;3.87;;;;;;;19.61;97.35;98811.37;1761299;81;20980;-66
2021/06/27 02:21:29;;;;;;;5.97;4.00;;;;;;;19.66;97.12;98807.86;1760958;81;21132;-66
2021/06/27 02:23:58;;;;;;;6.22;4.00;;;;;;;19.69;96.76;98804.95;1753646;81;20951;-66
2021/06/27 02:26:25;;;;;;;8.73;3.35;;;;;;;19.72;96.54;98811.27;1763830;81;20955;-66
2021/06/27 02:28:51;;;;;;;5.85;3.80;;;;;;;19.78;96.46;98800.66;1763724;81;20964;-66
2021/06/27 02:31:18;;;;;;;5.37;3.37;;;;;;;19.83;96.15;98803.22;1756296;81;20981;-66
2021/06/27 02:33:45;;;;;;;8.65;3.70;;;;;;;19.89;95.76;98811.08;1760899;81;21126;-66
2021/06/27 02:36:14;;;;;;;4.75;4.10;;;;;;;19.99;95.69;98817.17;1760576;81;21057;-66
2021/06/27 02:38:40;;;;;;;5.85;4.10;;;;;;;20.21;95.53;98821.34;1761266;81;20953;-66
2021/06/27 02:41:08;;;;;;;6.45;3.75;;;;;;;20.49;94.69;98820.52;1749967;81;21037;-66
2021/06/27 02:43:37;;;;;;;6.20;4.47;;;;;;;20.80;93.63;98826.41;1753991;81;21710;-66
2021/06/27 02:46:04;;;;;;;6.40;4.85;;;;;;;21.11;92.36;98825.69;1758962;81;21415;-66
2021/06/27 02:48:30;;;;;;;7.37;3.87;;;;;;;21.50;91.02;98824.20;1761232;81;20935;-66
2021/06/27 02:50:57;;;;;;;7.45;4.25;;;;;;;21.92;89.00;98827.95;1761224;81;20979;-66
2021/06/27 02:53:24;;;;;;;5.75;3.70;;;;;;;22.36;87.02;98829.86;1761335;81;20998;-66
2021/06/27 02:56:07;;;;;;;4.58;4.03;;;;;;;22.74;84.69;98832.62;1761439;81;21418;-66
2021/06/27 02:58:19;;;;;;;5.70;4.20;;;;;;;23.10;82.53;98837.33;1754696;81;21471;-66
2021/06/27 03:00:46;;;;;;;4.70;3.90;;;;;;;23.32;80.95;98835.44;1758870;81;21028;-66
2021/06/27 03:03:12;;;;;;;4.62;3.95;;;;;;;23.42;79.42;98841.93;1758788;81;21078;-66
2021/06/27 03:05:38;;;;;;;8.60;4.08;;;;;;;23.39;78.30;98845.73;1761504;81;21421;-66
2021/06/27 03:08:05;;;;;;;7.12;4.67;;;;;;;23.27;78.16;98845.69;1761354;81;21041;-66
2021/06/27 03:10:31;;;;;;;8.98;4.40;;;;;;;23.12;78.09;98846.80;1761313;81;21105;-66
2021/06/27 03:12:58;;;;;;;7.22;4.58;;;;;;;22.98;78.10;98835.45;1761384;81;21426;-66
2021/06/27 03:15:26;;;;;;;10.63;5.05;;;;;;;22.84;78.30;98845.30;1761593;81;21019;-66
2021/06/27 03:17:52;;;;;;;6.97;4.12;;;;;;;22.69;78.92;98843.19;1761211;81;21002;-66
2021/06/27 03:20:19;;;;;;;8.35;5.22;;;;;;;22.58;79.54;98849.25;1761200;81;20950;-66
2021/06/27 03:22:47;;;;;;;9.43;4.72;;;;;;;22.50;80.16;98844.70;1761480;81;21107;-66
2021/06/27 03:25:15;;;;;;;16.07;5.70;;;;;;;22.45;80.39;98843.50;1761180;81;21038;-65
2021/06/27 03:27:42;;;;;;;4.92;4.47;;;;;;;22.38;80.58;98839.33;1761447;81;20931;-65
2021/06/27 03:30:11;;;;;;;9.33;4.28;;;;;;;22.33;80.85;98841.59;1761366;81;21038;-66
2021/06/27 03:32:37;;;;;;;5.20;4.70;;;;;;;22.31;81.09;98847.05;1761251;81;21018;-64
2021/06/27 03:35:06;;;;;;;10.25;4.80;;;;;;;22.30;81.25;98837.43;1761311;81;21190;-64
2021/06/27 03:37:33;;;;;;;8.43;4.60;;;;;;;22.32;81.38;98834.63;1756411;81;20978;-64
2021/06/27 03:40:00;;;;;;;7.70;4.30;;;;;;;22.50;81.56;98835.44;1757239;81;20954;-64
2021/06/27 03:42:27;;;;;;;6.60;4.60;;;;;;;22.86;81.05;98832.72;1759712;80;20990;-65
2021/06/27 03:44:56;;;;;;;9.53;5.70;;;;;;;23.30;80.32;98843.56;1760788;81;21086;-65
2021/06/27 03:47:24;;;;;;;5.72;4.72;;;;;;;23.78;78.84;98842.06;1758166;81;21395;-65
2021/06/27 03:49:50;;;;;;;9.95;4.60;;;;;;;24.30;77.20;98844.52;1761427;81;20974;-65
2021/06/27 03:52:17;;;;;;;11.97;4.67;;;;;;;24.85;75.00;98842.45;1761672;81;21498;-66
2021/06/27 03:54:43;;;;;;;11.78;5.40;;;;;;;25.33;72.37;98835.70;1761334;81;20955;-65
2021/06/27 03:57:10;;;;;;;5.75;5.10;;;;;;;25.88;70.17;98842.77;1761469;81;21078;-65
2021/06/27 03:59:38;;;;;;;8.68;5.60;;;;;;;26.48;68.16;98831.34;1761569;81;21141;-66
2021/06/27 04:02:04;;;;;;;7.35;5.72;;;;;;;26.92;65.82;98824.74;1761415;81;20927;-65
2021/06/27 04:04:30;;;;;;;16.00;6.50;;;;;;;27.04;64.13;98821.13;1761305;81;20947;-66
2021/06/27 04:06:57;;;;;;;7.95;5.90;;;;;;;26.96;63.59;98814.56;1761302;81;21010;-65
2021/06/27 04:09:24;;;;;;;6.22;5.72;;;;;;;26.69;63.80;98819.47;1761674;81;21438;-67
2021/06/27 04:11:50;;;;;;;8.88;6.72;;;;;;;26.51;64.40;98812.82;1761362;81;21181;-66
2021/06/27 04:14:17;;;;;;;9.98;7.22;;;;;;;26.38;64.53;98810.75;1761280;81;20991;-67
2021/06/27 04:16:45;;;;;;;7.40;6.70;;;;;;;26.14;65.21;98814.95;1761424;81;21641;-65
2021/06/27 04:19:13;;;;;;;8.53;6.42;;;;;;;25.82;66.09;98827.47;1761244;81;20920;-65
2021/06/27 04:21:39;;;;;;;15.75;6.40;;;;;;;25.54;66.96;98827.62;1761390;81;20952;-65
2021/06/27 04:24:07;;;;;;;9.70;6.80;;;;;;;25.31;67.94;98827.55;1761497;81;21122;-65
2021/06/27 04:26:34;;;;;;;8.25;7.25;;;;;;;25.06;68.35;98828.14;1761433;81;21387;-66
2021/06/27 04:29:01;;;;;;;9.20;7.92;;;;;;;24.81;69.43;98829.16;1761686;81;20955;-66
2021/06/27 04:31:27;;;;;;;8.55;7.67;;;;;;;24.58;70.44;98824.54;1761441;81;21031;-66
2021/06/27 04:33:54;;;;;;;9.25;8.13;;;;;;;24.41;71.18;98820.73;1761589;81;21513;-66
2021/06/27 04:36:20;;;;;;;15.80;8.60;;;;;;;24.26;71.80;98829.88;1761448;81;21113;-66
2021/06/27 04:38:47;;;;;;;9.85;8.45;;;;;;;24.16;72.24;98827.87;1759553;81;21011;-66
2021/06/27 04:41:15;;;;;;;12.90;8.73;;;;;;;24.02;72.59;98825.34;1762022;80;21085;-64
2021/06/27 04:43:41;;;;;;;13.55;9.18;;;;;;;23.90;73.60;98822.19;1764322;81;21493;-64
2021/06/27 04:46:08;;;;;;;16.42;9.83;;;;;;;23.78;74.06;98817.38;1758179;81;21025;-65
2021/06/27 04:48:37;;;;;;;15.03;9.65;;;;;;;23.68;74.93;98815.67;1752360;80;21115;-65
2021/06/27 04:51:04;;;;;;;13.70;9.25;;;;;;;23.62;74.96;98822.13;1762537;81;20919;-64
2021/06/27 04:53:31;;;;;;;9.95;8.95;;;;;;;23.53;75.35;98822.61;1764185;81;20939;-65
2021/06/27 04:55:58;;;;;;;14.85;10.20;;;;;;;23.52;75.94;98820.95;1761056;81;21030;-65
2021/06/27 04:58:26;;;;;;;15.88;9.88;;;;;;;23.55;76.04;98819.30;1760842;81;21613;-65
2021/06/27 05:00:52;;;;;;;9.45;8.58;;;;;;;23.66;75.96;98817.66;1754868;80;21062;-66
2021/06/27 05:03:19;;;;;;;10.80;9.40;;;;;;;23.80;75.73;98816.19;1763583;81;21375;-65
2021/06/27 05:05:46;;;;;;;10.23;8.75;;;;;;;23.95;74.97;98818.55;1763970;81;20952;-65
2021/06/27 05:08:12;;;;;;;17.62;10.08;;;;;;;24.17;74.33;98821.06;1758774;81;20943;-65
2021/06/27 05:10:40;;;;;;;9.68;8.73;;;;;;;24.47;73.37;98824.90;1757868;80;21030;-66
2021/06/27 05:13:07;;;;;;;9.70;8.80;;;;;;;24.86;72.18;98824.17;1763135;81;21128;-66
2021/06/27 05:15:34;;;;;;;12.73;9.25;;;;;;;25.28;70.97;98825.23;1763973;81;21105;-66
2021/06/27 05:18:00;;;;;;;9.63;8.73;;;;;;;25.87;68.22;98818.45;1764083;81;21407;-66
2021/06/27 05:20:26;;;;;;;9.40;8.50;;;;;;;26.38;66.82;98811.58;1761378;81;21032;-66
2021/06/27 05:22:53;;;;;;;9.65;8.73;;;;;;;26.82;64.63;98820.67;1758122;81;20952;-66
2021/06/27 05:25:19;;;;;;;15.75;9.50;;;;;;;27.20;62.59;98822.27;1759257;81;21238;-66
2021/06/27 05:27:46;;;;;;;10.35;8.25;;;;;;;27.45;61.65;98822.30;1758557;80;21081;-67
2021/06/27 05:30:14;;;;;;;8.93;8.13;;;;;;;27.66;59.84;98826.06;1761911;81;21007;-66
2021/06/27 05:32:41;;;;;;;9.78;8.33;;;;;;;27.92;58.64;98833.55;1763958;81;20963;-65
2021/06/27 05:35:09;;;;;;;9.70;8.80;;;;;;;28.15;57.93;98828.84;1764109;81;21014;-66
2021/06/27 05:37:36;;;;;;;9.40;8.58;;;;;;;28.48;57.33;98828.33;1762726;81;21120;-66
2021/06/27 05:40:04;;;;;;;10.32;7.95;;;;;;;28.68;55.00;98829.31;1763471;81;21451;-66
2021/06/27 05:42:31;;;;;;;13.40;8.15;;;;;;;28.86;55.82;98830.19;1759171;79;20935;-65
2021/06/27 05:44:57;;;;;;;14.70;8.38;;;;;;;28.98;54.07;98837.47;1755318;81;21044;-66
2021/06/27 05:47:24;;;;;;;8.85;7.83;;;;;;;29.14;54.05;98833.16;1759154;80;20987;-66
2021/06/27 05:49:50;;;;;;;16.32;8.88;;;;;;;29.03;53.47;98836.88;1763492;81;21907;-65
2021/06/27 05:52:16;;;;;;;10.35;8.65;;;;;;;28.81;53.99;98838.80;1765538;81;20990;-66
2021/06/27 05:54:43;;;;;;;9.20;8.23;;;;;;;28.41;54.50;98843.81;1759092;81;20951;-66
2021/06/27 05:57:09;;;;;;;11.08;7.95;;;;;;;28.01;55.10;98847.92;1756596;80;21015;-66
2021/06/27 05:59:36;;;;;;;12.30;8.25;;;;;;;27.87;55.70;98859.50;1750786;81;21402;-66
2021/06/27 06:02:03;;;;;;;10.82;8.93;;;;;;;27.75;56.43;98854.34;1758546;81;21815;-66
2021/06/27 06:04:30;;;;;;;8.93;7.62;;;;;;;27.61;56.86;98855.17;1761202;81;20975;-66
2021/06/27 06:06:57;;;;;;;9.18;7.83;;;;;;;27.38;56.70;98853.92;1761388;81;20998;-66
2021/06/27 06:09:23;;;;;;;11.03;8.00;;;;;;;27.39;57.13;98863.09;1761219;81;21372;-67
2021/06/27 06:11:49;;;;;;;11.08;8.20;;;;;;;27.52;57.62;98861.62;1761250;81;21070;-66
2021/06/27 06:14:16;;;;;;;13.60;7.90;;;;;;;27.49;57.80;98856.14;1761624;81;21786;-66
2021/06/27 06:16:45;;;;;;;8.18;7.42;;;;;;;27.41;57.00;98855.72;1761104;81;20951;-66
2021/06/27 06:19:13;;;;;;;7.80;6.90;;;;;;;27.32;56.91;98852.02;1761211;81;21112;-66
2021/06/27 06:21:40;;;;;;;13.88;7.45;;;;;;;27.09;56.65;98859.61;1761412;81;20991;-66
2021/06/27 06:24:07;;;;;;;11.30;7.70;;;;;;;26.90;57.71;98863.30;1761148;81;20991;-66
2021/06/27 06:26:33;;;;;;;8.43;7.42;;;;;;;26.86;58.52;98862.82;1761218;81;21107;-66
2021/06/27 06:28:59;;;;;;;11.10;8.43;;;;;;;26.95;59.00;98858.28;1761636;81;21038;-65
2021/06/27 06:31:26;;;;;;;9.50;8.38;;;;;;;27.09;58.54;98857.45;1761280;81;21027;-66
2021/06/27 06:33:54;;;;;;;13.58;8.90;;;;;;;27.13;57.60;98852.07;1761332;81;20963;-66
2021/06/27 06:36:21;;;;;;;9.85;7.85;;;;;;;27.13;58.81;98853.91;1761414;81;20987;-66
2021/06/27 06:38:48;;;;;;;12.70;7.70;;;;;;;27.17;58.71;98844.02;1758428;80;21131;-66
2021/06/27 06:41:17;;;;;;;8.70;7.67;;;;;;;27.25;57.69;98848.42;1761098;80;20935;-66
2021/06/27 06:43:44;;;;;;;11.12;8.20;;;;;;;27.21;56.46;98850.63;1758025;81;20994;-66
2021/06/27 06:46:11;;;;;;;8.85;8.03;;;;;;;27.03;56.78;98844.83;1760391;81;20951;-66
2021/06/27 06:48:39;;;;;;;13.18;8.88;;;;;;;26.78;57.50;98854.38;1755383;81;21493;-66
2021/06/27 06:51:05;;;;;;;9.98;8.53;;;;;;;26.54;58.75;98844.47;1758540;81;21606;-66
2021/06/27 06:53:31;;;;;;;9.08;8.18;;;;;;;26.45;60.01;98855.70;1757303;80;21011;-67
2021/06/27 06:55:58;;;;;;;11.33;8.28;;;;;;;26.40;58.92;98854.89;1763914;81;21490;-66
2021/06/27 06:58:29;;;;;;;10.03;8.13;;;;;;;26.35;59.34;98856.47;1754635;81;20947;-67
2021/06/27 07:00:54;;;;;;;8.83;8.03;;;;;;;26.23;59.75;98858.67;1763668;81;20983;-66
2021/06/27 07:03:21;;;;;;;13.72;10.43;;;;;;;26.04;59.73;98853.31;1763841;81;21109;-66
2021/06/27 07:05:47;;;;;;;11.95;8.23;;;;;;;25.91;61.28;98861.56;1757601;80;21482;-66
2021/06/27 07:08:13;;;;;;;9.60;8.45;;;;;;;25.85;61.44;98862.26;1761192;81;20959;-66
2021/06/27 07:10:42;;;;;;;9.45;8.43;;;;;;;25.79;61.66;98862.95;1761190;81;21095;-66
2021/06/27 07:13:09;;;;;;;9.60;8.38;;;;;;;25.71;62.23;98860.67;1761285;81;21002;-65
2021/06/27 07:15:36;;;;;;;14.93;8.13;;;;;;;25.64;63.00;98869.03;1761305;81;21184;-65
2021/06/27 07:18:03;;;;;;;14.63;8.23;;;;;;;25.44;63.34;98868.25;1761564;81;20991;-67
2021/06/27 07:20:31;;;;;;;9.50;8.60;;;;;;;25.20;64.45;98860.68;1761381;81;21440;-67
2021/06/27 07:22:58;;;;;;;15.88;8.63;;;;;;;25.03;65.32;98865.72;1761388;81;21037;-66
2021/06/27 07:25:25;;;;;;;8.53;7.55;;;;;;;24.85;65.91;98862.41;1761417;81;20956;-65
2021/06/27 07:27:53;;;;;;;10.28;8.18;;;;;;;24.72;66.69;98871.74;1761392;81;21185;-67
2021/06/27 07:30:20;;;;;;;16.57;9.50;;;;;;;24.60;67.47;98858.94;1761285;80;20982;-65
2021/06/27 07:32:46;;;;;;;15.05;8.75;;;;;;;24.48;68.03;98865.61;1761475;81;21526;-66
2021/06/27 07:35:13;;;;;;;14.75;7.85;;;;;;;24.36;69.05;98871.77;1761258;81;21090;-66
2021/06/27 07:37:40;;;;;;;20.20;9.15;;;;;;;24.26;69.67;98873.23;1761374;81;20986;-66
2021/06/27 07:40:08;;;;;;;16.27;8.60;;;;;;;24.19;70.00;98875.34;1761569;81;21083;-66
2021/06/27 07:42:35;;;;;;;16.45;8.58;;;;;;;24.12;70.46;98879.67;1761284;80;20967;-67
2021/06/27 07:45:01;;;;;;;9.40;8.08;;;;;;;24.05;70.80;98886.95;1761400;81;20955;-66
2021/06/27 07:47:28;;;;;;;8.55;7.72;;;;;;;23.96;70.96;98883.14;1761338;81;21459;-66
2021/06/27 07:49:56;;;;;;;9.10;8.25;;;;;;;23.86;71.27;98887.74;1761351;81;20943;-67
2021/06/27 07:52:22;;;;;;;8.73;7.72;;;;;;;23.74;72.15;98897.02;1761625;80;21128;-65
2021/06/27 07:54:48;;;;;;;8.85;7.95;;;;;;;23.67;72.67;98886.19;1761641;81;21030;-67
2021/06/27 07:57:15;;;;;;;14.40;8.23;;;;;;;23.66;72.94;98888.52;1761354;81;20987;-65
2021/06/27 07:59:41;;;;;;;10.80;8.15;;;;;;;23.63;73.30;98877.71;1761585;81;21423;-66
2021/06/27 08:02:08;;;;;;;9.48;8.25;;;;;;;23.67;73.25;98872.92;1761298;81;21046;-66
2021/06/27 08:04:36;;;;;;;14.80;8.13;;;;;;;23.74;73.36;98875.77;1761455;81;21516;-67
2021/06/27 08:07:02;;;;;;;8.63;6.97;;;;;;;23.86;73.84;98867.83;1761328;81;20920;-66
2021/06/27 08:09:29;;;;;;;8.73;7.58;;;;;;;24.02;72.82;98867.85;1761515;81;20935;-66
2021/06/27 08:11:55;;;;;;;8.73;7.50;;;;;;;24.11;72.39;98855.42;1761356;81;21174;-67
2021/06/27 08:14:22;;;;;;;11.65;7.22;;;;;;;24.22;71.04;98869.70;1761334;81;20986;-66
2021/06/27 08:16:48;;;;;;;17.82;7.67;;;;;;;24.24;70.99;98866.42;1761238;81;21280;-66
2021/06/27 08:19:15;;;;;;;8.18;6.58;;;;;;;24.28;71.26;98861.95;1761435;81;21442;-65
2021/06/27 08:21:41;;;;;;;14.80;7.87;;;;;;;24.41;70.41;98849.98;1761323;81;20998;-65
2021/06/27 08:24:08;;;;;;;7.75;6.95;;;;;;;24.50;70.47;98852.48;1760955;81;20983;-66
2021/06/27 08:26:34;;;;;;;7.55;6.75;;;;;;;24.60;69.90;98845.64;1761434;81;21419;-65
2021/06/27 08:29:01;;;;;;;7.62;6.70;;;;;;;24.69;69.41;98852.63;1761317;81;21123;-66
2021/06/27 08:31:28;;;;;;;8.95;7.25;;;;;;;24.78;69.42;98855.59;1761195;81;21030;-66
2021/06/27 08:33:55;;;;;;;8.48;7.70;;;;;;;24.90;68.79;98855.59;1761420;81;21419;-67
2021/06/27 08:36:23;;;;;;;8.93;6.40;;;;;;;24.98;68.60;98845.47;1761251;81;21412;-66
2021/06/27 08:38:50;;;;;;;7.55;6.85;;;;;;;25.13;67.54;98862.89;1761268;81;20944;-66
2021/06/27 08:41:17;;;;;;;11.08;7.17;;;;;;;25.25;66.08;98848.20;1761332;80;21080;-66
2021/06/27 08:43:44;;;;;;;6.97;6.28;;;;;;;25.29;66.02;98844.20;1761439;81;21385;-67
2021/06/27 08:46:13;;;;;;;7.92;6.95;;;;;;;25.37;66.40;98841.02;1761196;81;21023;-66
2021/06/27 08:48:40;;;;;;;12.15;7.17;;;;;;;25.59;67.08;98845.21;1761454;81;21408;-66
2021/06/27 08:51:07;;;;;;;9.58;7.00;;;;;;;25.87;64.66;98853.59;1761598;81;21050;-67
2021/06/27 08:53:36;;;;;;;7.95;6.40;;;;;;;26.01;63.46;98844.83;1755450;80;21440;-66
2021/06/27 08:56:07;;;;;;;8.43;6.20;;;;;;;26.06;63.54;98840.64;1760206;81;20991;-66
2021/06/27 08:58:41;;;;;;;11.03;5.53;;;;;;;26.19;62.30;98846.70;1764087;81;21054;-66
2021/06/27 09:01:21;;;;;;;7.53;6.60;;;;;;;26.34;61.62;98834.80;1751450;80;21054;-65
2021/06/27 09:03:49;;;;;;;7.05;6.35;;;;;;;26.43;60.97;98836.38;1761345;81;21038;-65
2021/06/27 09:06:29;;;;;;;5.92;5.33;;;;;;;26.54;61.22;98831.97;1761649;81;21104;-66
2021/06/27 09:09:19;;;;;;;8.00;5.15;;;;;;;26.72;59.12;98832.45;1761267;81;21594;-66
2021/06/27 09:12:02;;;;;;;8.20;6.15;;;;;;;26.95;58.81;98834.26;1758158;81;20973;-67
2021/06/27 09:14:42;;;;;;;6.62;5.62;;;;;;;27.20;59.90;98825.45;1756267;80;20983;-67
2021/06/27 09:17:23;;;;;;;8.40;5.97;;;;;;;27.34;60.25;98823.29;1762479;81;21044;-66
2021/06/27 09:19:56;;;;;;;9.90;7.00;;;;;;;27.43;59.32;98829.66;1763899;80;21860;-66
2021/06/27 09:22:35;;;;;;;6.70;5.97;;;;;;;27.49;59.04;98831.27;1763826;81;21022;-66
2021/06/27 09:25:23;;;;;;;10.68;6.33;;;;;;;27.55;57.15;98834.54;1753602;81;21054;-67
2021/06/27 09:28:11;;;;;;;12.20;6.20;;;;;;;27.65;57.21;98829.23;1758820;81;21035;-66
2021/06/27 09:30:49;;;;;;;10.43;6.17;;;;;;;27.77;56.97;98828.26;1763982;81;20971;-66
2021/06/27 09:33:24;;;;;;;10.45;6.08;;;;;;;27.86;56.78;98826.28;1763997;81;21133;-66
2021/06/27 09:36:09;;;;;;;8.43;5.97;;;;;;;27.83;55.43;98829.33;1763871;81;21027;-66
2021/06/27 09:38:46;;;;;;;12.63;6.20;;;;;;;27.76;55.44;98829.27;1763971;81;21065;-65
2021/06/27 09:41:18;;;;;;;9.50;6.22;;;;;;;27.58;56.48;98828.32;1764049;80;20955;-66
2021/06/27 09:44:04;;;;;;;7.97;5.63;;;;;;;27.54;58.35;98836.89;1756360;81;21573;-66
2021/06/27 09:46:40;;;;;;;6.60;5.42;;;;;;;27.56;57.89;98837.03;1755743;81;21920;-66
2021/06/27 09:49:16;;;;;;;7.65;5.70;;;;;;;27.62;58.24;98837.63;1757634;81;20991;-66
2021/06/27 09:51:56;;;;;;;7.70;5.42;;;;;;;27.78;57.59;98837.90;1761552;81;20959;-65
2021/06/27 09:54:24;;;;;;;8.78;6.17;;;;;;;27.90;57.18;98843.59;1760455;81;20994;-65
2021/06/27 09:56:52;;;;;;;10.23;5.28;;;;;;;28.03;57.35;98845.06;1761345;81;21010;-66
2021/06/27 09:59:42;;;;;;;7.47;5.30;;;;;;;28.21;56.77;98855.34;1761417;81;21118;-66
2021/06/27 10:02:09;;;;;;;6.40;5.20;;;;;;;28.32;54.33;98857.02;1761162;81;21525;-66
2021/06/27 10:04:37;;;;;;;8.05;5.62;;;;;;;28.31;54.87;98849.18;1761292;81;21038;-66
2021/06/27 10:07:06;;;;;;;6.28;5.70;;;;;;;28.24;54.57;98850.45;1761314;81;21407;-66
2021/06/27 10:09:35;;;;;;;7.10;5.85;;;;;;;28.13;55.21;98854.95;1761253;81;21512;-66
2021/06/27 10:12:11;;;;;;;6.33;5.72;;;;;;;28.08;55.36;98851.50;1761273;81;21787;-66
2021/06/27 10:14:59;;;;;;;5.37;4.87;;;;;;;28.00;54.99;98854.79;1761181;81;21039;-66
2021/06/27 10:17:29;;;;;;;6.97;4.53;;;;;;;27.88;55.49;98859.81;1758193;81;20994;-66
2021/06/27 10:19:56;;;;;;;4.78;4.37;;;;;;;27.53;56.61;98872.12;1756459;81;21443;-66
2021/06/27 10:22:26;;;;;;;5.95;5.37;;;;;;;27.07;57.72;98880.32;1764170;81;20939;-66
2021/06/27 10:24:55;;;;;;;6.40;4.85;;;;;;;26.63;59.20;98877.54;1759997;81;21230;-66
2021/06/27 10:27:21;;;;;;;7.42;4.65;;;;;;;26.33;60.13;98873.14;1757619;81;21406;-66
2021/06/27 10:29:49;;;;;;;8.23;4.80;;;;;;;26.20;60.40;98879.52;1761121;81;20999;-67
2021/06/27 10:32:17;;;;;;;6.45;5.12;;;;;;;26.21;60.94;98884.67;1763936;81;21585;-67
2021/06/27 10:34:44;;;;;;;4.55;4.15;;;;;;;26.33;60.89;98869.97;1763905;81;20995;-66
2021/06/27 10:37:38;;;;;;;6.65;4.85;;;;;;;26.52;60.35;98872.65;1764073;81;21375;-65
2021/06/27 10:40:16;;;;;;;7.25;5.40;;;;;;;26.59;60.11;98882.08;1764163;80;20922;-66
2021/06/27 10:42:58;;;;;;;8.38;5.80;;;;;;;26.51;59.82;98879.49;1757721;80;21023;-66
2021/06/27 10:45:30;;;;;;;8.35;5.53;;;;;;;26.29;60.20;98873.13;1759320;81;21403;-65
2021/06/27 10:47:57;;;;;;;6.20;5.37;;;;;;;26.14;61.81;98873.58;1761507;81;21415;-65
2021/06/27 10:50:25;;;;;;;5.85;5.35;;;;;;;26.24;60.74;98874.16;1761133;81;21101;-66
2021/06/27 10:52:56;;;;;;;5.80;5.30;;;;;;;26.32;59.96;98880.81;1695487;80;21069;-66
2021/06/27 10:55:28;;;;;;;7.20;5.35;;;;;;;26.38;58.71;98884.91;1756018;81;20930;-66
2021/06/27 10:58:07;;;;;;;7.65;5.97;;;;;;;26.49;58.35;98877.00;1757769;81;20947;-66
2021/06/27 11:00:58;;;;;;;8.20;7.40;;;;;;;26.62;58.79;98873.21;1753975;81;20938;-66
2021/06/27 11:03:34;;;;;;;6.30;5.12;;;;;;;26.80;58.72;98886.22;1762894;81;21153;-66
2021/06/27 11:06:08;;;;;;;6.90;6.17;;;;;;;26.94;58.04;98880.61;1763791;81;20943;-67
2021/06/27 11:08:47;;;;;;;6.58;5.42;;;;;;;26.98;58.21;98877.90;1764527;81;20943;-65
2021/06/27 11:11:16;;;;;;;8.93;5.85;;;;;;;26.92;58.30;98871.95;1763354;81;20991;-66
2021/06/27 11:14:06;;;;;;;7.03;6.33;;;;;;;26.87;58.45;98870.33;1763294;81;20951;-66
2021/06/27 11:16:37;;;;;;;7.28;5.50;;;;;;;26.89;59.53;98874.47;1764005;81;21431;-66
2021/06/27 11:19:03;;;;;;;6.87;5.80;;;;;;;26.97;58.92;98873.09;1717993;81;20987;-66
2021/06/27 11:21:35;;;;;;;7.78;5.33;;;;;;;26.99;59.26;98876.39;1693804;81;21053;-66
2021/06/27 11:24:04;;;;;;;6.05;5.40;;;;;;;27.07;58.31;98881.66;1757945;81;20955;-66
2021/06/27 11:26:51;;;;;;;5.58;5.05;;;;;;;27.07;56.74;98889.66;1754163;81;21101;-66
2021/06/27 11:29:26;;;;;;;7.00;5.15;;;;;;;26.95;56.64;98879.63;1756574;81;21103;-65
2021/06/27 11:32:11;;;;;;;5.92;5.20;;;;;;;26.87;57.01;98883.16;1752476;81;20991;-66
2021/06/27 11:34:55;;;;;;;6.22;5.60;;;;;;;26.85;56.85;98879.02;1755640;81;21011;-66
2021/06/27 11:37:28;;;;;;;7.53;5.70;;;;;;;26.87;57.56;98879.66;1761220;80;20954;-65
2021/06/27 11:39:59;;;;;;;6.17;5.33;;;;;;;26.90;58.49;98876.12;1764040;81;20989;-67